createdAt,value
2023-03-18T00:00:25.547Z,18.77
2023-03-18T00:02:52.659Z,18.77
2023-03-18T00:05:20.211Z,18.76
2023-03-18T00:07:47.551Z,18.78
2023-03-18T00:10:14.121Z,18.79
2023-03-18T00:12:41.413Z,18.78
2023-03-18T00:15:10.722Z,18.80
2023-03-18T00:17:37.840Z,18.82
2023-03-18T00:20:06.889Z,18.82
2023-03-18T00:22:34.656Z,18.81
2023-03-18T00:25:02.138Z,18.83
2023-03-18T00:27:28.957Z,18.83
2023-03-18T00:29:56.064Z,18.82
2023-03-18T00:32:23.125Z,18.82
2023-03-18T00:34:50.665Z,18.83
2023-03-18T00:37:30.051Z,18.84
2023-03-18T00:40:07.780Z,18.82
2023-03-18T00:42:47.466Z,18.83
2023-03-18T00:45:16.157Z,18.83
2023-03-18T00:47:43.655Z,18.82
2023-03-18T00:50:11.547Z,18.82
2023-03-18T00:52:38.121Z,18.81
2023-03-18T00:55:05.325Z,18.81
2023-03-18T00:57:31.858Z,18.81
2023-03-18T00:59:59.280Z,18.81
2023-03-18T01:02:26.444Z,18.81
2023-03-18T01:04:53.281Z,18.81
2023-03-18T01:07:19.816Z,18.82
2023-03-18T01:09:46.734Z,18.82
2023-03-18T01:12:13.620Z,18.79
2023-03-18T01:14:41.123Z,18.79
2023-03-18T01:17:09.005Z,18.79
2023-03-18T01:19:36.538Z,18.79
2023-03-18T01:22:03.872Z,18.79
2023-03-18T01:24:30.783Z,18.78
2023-03-18T01:26:58.177Z,18.77
2023-03-18T01:29:25.175Z,18.77
2023-03-18T01:31:51.749Z,18.75
2023-03-18T01:34:18.885Z,18.74
2023-03-18T01:36:46.428Z,18.74
2023-03-18T01:39:12.973Z,18.73
2023-03-18T01:41:40.222Z,18.73
2023-03-18T01:44:23.231Z,18.70
2023-03-18T01:46:51.394Z,18.72
2023-03-18T01:49:22.079Z,18.69
2023-03-18T01:51:57.705Z,18.69
2023-03-18T01:54:26.303Z,18.69
2023-03-18T01:56:53.918Z,18.67
2023-03-18T01:59:23.928Z,18.66
2023-03-18T02:01:56.217Z,18.66
2023-03-18T02:04:27.529Z,18.66
2023-03-18T02:06:54.101Z,18.65
2023-03-18T02:09:20.663Z,18.65
2023-03-18T02:11:51.686Z,18.66
2023-03-18T02:14:24.910Z,18.63
2023-03-18T02:17:01.089Z,18.62
2023-03-18T02:19:58.331Z,18.61
2023-03-18T02:22:47.355Z,18.61
2023-03-18T02:25:31.932Z,18.61
2023-03-18T02:28:03.435Z,18.61
2023-03-18T02:30:37.670Z,18.59
2023-03-18T02:33:05.177Z,18.61
2023-03-18T02:35:32.740Z,18.59
2023-03-18T02:37:59.314Z,18.59
2023-03-18T02:40:37.046Z,18.58
2023-03-18T02:43:19.414Z,18.56
2023-03-18T02:46:22.096Z,18.56
2023-03-18T02:48:49.896Z,18.56
2023-03-18T02:51:17.302Z,18.57
2023-03-18T02:53:43.996Z,18.56
2023-03-18T02:56:11.138Z,18.56
2023-03-18T02:58:38.126Z,18.55
2023-03-18T03:01:08.159Z,18.55
2023-03-18T03:03:35.704Z,18.54
2023-03-18T03:06:03.304Z,18.55
2023-03-18T03:08:30.484Z,18.55
2023-03-18T03:10:57.540Z,18.54
2023-03-18T03:13:24.888Z,18.54
2023-03-18T03:15:51.810Z,18.52
2023-03-18T03:18:18.535Z,18.52
2023-03-18T03:20:45.657Z,18.52
2023-03-18T03:23:15.612Z,18.51
2023-03-18T03:25:44.798Z,18.50
2023-03-18T03:28:13.465Z,18.50
2023-03-18T03:30:40.560Z,18.49
2023-03-18T03:33:07.186Z,18.48
2023-03-18T03:35:34.525Z,18.48
2023-03-18T03:38:01.085Z,18.49
2023-03-18T03:40:28.421Z,18.46
2023-03-18T03:42:54.976Z,18.47
2023-03-18T03:45:21.715Z,18.46
2023-03-18T03:47:48.337Z,18.47
2023-03-18T03:50:17.052Z,18.45
2023-03-18T03:52:44.500Z,18.46
2023-03-18T03:55:13.312Z,18.45
2023-03-18T03:57:41.858Z,18.44
2023-03-18T04:00:14.340Z,18.44
2023-03-18T04:02:43.461Z,18.44
2023-03-18T04:05:11.882Z,18.42
2023-03-18T04:07:39.571Z,18.41
2023-03-18T04:10:09.446Z,18.41
2023-03-18T04:12:36.507Z,18.41
2023-03-18T04:15:03.332Z,18.41
2023-03-18T04:17:30.129Z,18.41
2023-03-18T04:19:56.738Z,18.38
2023-03-18T04:22:24.062Z,18.39
2023-03-18T04:24:50.874Z,18.40
2023-03-18T04:27:18.517Z,18.39
2023-03-18T04:29:45.293Z,18.38
2023-03-18T04:32:11.860Z,18.36
2023-03-18T04:34:38.611Z,18.36
2023-03-18T04:37:05.166Z,18.36
2023-03-18T04:39:31.674Z,18.37
2023-03-18T04:41:58.347Z,18.37
2023-03-18T04:44:25.456Z,18.36
2023-03-18T04:46:53.638Z,18.35
2023-03-18T04:49:21.309Z,18.36
2023-03-18T04:51:47.836Z,18.36
2023-03-18T04:54:14.325Z,18.36
2023-03-18T04:56:41.376Z,18.37
2023-03-18T04:59:07.893Z,18.33
2023-03-18T05:01:34.924Z,18.34
2023-03-18T05:04:02.155Z,18.33
2023-03-18T05:06:31.701Z,18.32
2023-03-18T05:08:58.866Z,18.32
2023-03-18T05:11:26.749Z,18.32
2023-03-18T05:13:53.406Z,18.31
2023-03-18T05:16:20.014Z,18.31
2023-03-18T05:18:46.889Z,18.31
2023-03-18T05:21:13.459Z,18.30
2023-03-18T05:23:39.942Z,18.30
2023-03-18T05:26:06.656Z,18.31
2023-03-18T05:28:34.171Z,18.30
2023-03-18T05:31:00.703Z,18.30
2023-03-18T05:33:27.423Z,18.30
2023-03-18T05:35:54.013Z,18.30
2023-03-18T05:38:20.651Z,18.29
2023-03-18T05:40:47.303Z,18.29
2023-03-18T05:43:13.961Z,18.28
2023-03-18T05:45:41.017Z,18.27
2023-03-18T05:48:08.177Z,18.28
2023-03-18T05:50:38.204Z,18.29
2023-03-18T05:53:06.545Z,18.27
2023-03-18T05:55:33.782Z,18.28
2023-03-18T05:58:00.829Z,18.28
2023-03-18T06:00:31.338Z,18.28
2023-03-18T06:02:59.482Z,18.27
2023-03-18T06:05:27.177Z,18.28
2023-03-18T06:07:54.784Z,18.26
2023-03-18T06:10:23.024Z,18.25
2023-03-18T06:12:50.614Z,18.25
2023-03-18T06:15:18.777Z,18.25
2023-03-18T06:17:45.587Z,18.24
2023-03-18T06:20:14.183Z,18.23
2023-03-18T06:22:41.049Z,18.24
2023-03-18T06:25:08.265Z,18.24
2023-03-18T06:27:35.694Z,18.25
2023-03-18T06:30:04.634Z,18.25
2023-03-18T06:32:33.028Z,18.24
2023-03-18T06:35:00.268Z,18.26
2023-03-18T06:37:26.824Z,18.25
2023-03-18T06:39:53.612Z,18.25
2023-03-18T06:42:20.302Z,18.25
2023-03-18T06:44:50.737Z,18.25
2023-03-18T06:47:22.220Z,18.24
2023-03-18T06:49:49.610Z,18.23
2023-03-18T06:52:17.224Z,18.24
2023-03-18T06:54:44.673Z,18.24
2023-03-18T06:57:12.047Z,18.24
2023-03-18T06:59:39.358Z,18.23
2023-03-18T07:02:06.104Z,18.23
2023-03-18T07:04:33.895Z,18.23
2023-03-18T07:07:00.567Z,18.23
2023-03-18T07:09:28.328Z,18.23
2023-03-18T07:11:54.959Z,18.24
2023-03-18T07:14:21.716Z,18.24
2023-03-18T07:16:48.264Z,18.25
2023-03-18T07:19:16.223Z,18.26
2023-03-18T07:21:43.786Z,18.28
2023-03-18T07:24:11.365Z,18.29
2023-03-18T07:26:38.426Z,18.29
2023-03-18T07:29:05.476Z,18.30
2023-03-18T07:31:32.083Z,18.31
2023-03-18T07:33:59.170Z,18.31
2023-03-18T07:36:26.746Z,18.32
2023-03-18T07:38:53.591Z,18.34
2023-03-18T07:41:20.172Z,18.35
2023-03-18T07:43:46.727Z,18.37
2023-03-18T07:46:13.312Z,18.38
2023-03-18T07:48:39.911Z,18.40
2023-03-18T07:51:06.814Z,18.41
2023-03-18T07:53:34.020Z,18.44
2023-03-18T07:56:00.770Z,18.45
2023-03-18T07:58:27.376Z,18.46
2023-03-18T08:00:54.276Z,18.48
2023-03-18T08:03:21.157Z,18.50
2023-03-18T08:05:47.774Z,18.54
2023-03-18T08:08:14.271Z,18.57
2023-03-18T08:10:40.807Z,18.60
2023-03-18T08:13:07.304Z,18.64
2023-03-18T08:15:34.612Z,18.68
2023-03-18T08:18:01.716Z,18.72
2023-03-18T08:20:28.774Z,18.76
2023-03-18T08:22:56.017Z,18.81
2023-03-18T08:25:23.628Z,18.85
2023-03-18T08:27:50.842Z,18.89
2023-03-18T08:30:17.589Z,18.92
2023-03-18T08:32:44.402Z,18.95
2023-03-18T08:35:12.723Z,18.99
2023-03-18T08:37:39.294Z,19.03
2023-03-18T08:40:06.518Z,19.06
2023-03-18T08:42:33.069Z,19.10
2023-03-18T08:44:59.726Z,19.13
2023-03-18T08:47:27.374Z,19.15
2023-03-18T08:49:53.916Z,19.19
2023-03-18T08:52:22.365Z,19.21
2023-03-18T08:54:49.286Z,19.23
2023-03-18T08:57:16.039Z,19.26
2023-03-18T08:59:42.632Z,19.29
2023-03-18T09:02:16.861Z,19.30
2023-03-18T09:04:44.082Z,19.32
2023-03-18T09:07:11.576Z,19.35
2023-03-18T09:09:43.686Z,19.36
2023-03-18T09:12:12.575Z,19.40
2023-03-18T09:14:40.415Z,19.41
2023-03-18T09:17:06.959Z,19.43
2023-03-18T09:19:33.546Z,19.46
2023-03-18T09:22:00.129Z,19.49
2023-03-18T09:24:26.799Z,19.52
2023-03-18T09:26:53.418Z,19.55
2023-03-18T09:29:19.969Z,19.59
2023-03-18T09:31:46.975Z,19.62
2023-03-18T09:34:14.506Z,19.64
2023-03-18T09:36:42.170Z,19.66
2023-03-18T09:39:10.041Z,19.67
2023-03-18T09:41:51.337Z,19.69
2023-03-18T09:44:24.881Z,19.75
2023-03-18T09:47:18.718Z,19.77
2023-03-18T09:50:27.640Z,19.81
2023-03-18T09:53:09.864Z,19.88
2023-03-18T09:55:53.090Z,19.93
2023-03-18T09:58:46.571Z,19.96
2023-03-18T10:01:14.001Z,20.03
2023-03-18T10:03:51.211Z,20.08
2023-03-18T10:06:20.802Z,20.14
2023-03-18T10:08:57.059Z,20.17
2023-03-18T10:11:34.126Z,20.25
2023-03-18T10:14:23.630Z,20.30
2023-03-18T10:17:16.218Z,20.31
2023-03-18T10:19:48.219Z,20.34
2023-03-18T10:22:38.132Z,20.34
2023-03-18T10:25:35.336Z,20.36
2023-03-18T10:28:02.034Z,20.37
2023-03-18T10:30:39.144Z,20.36
2023-03-18T10:33:05.734Z,20.36
2023-03-18T10:35:59.383Z,20.34
2023-03-18T10:38:32.081Z,20.36
2023-03-18T10:40:59.055Z,20.34
2023-03-18T10:43:29.822Z,20.34
2023-03-18T10:46:07.454Z,20.33
2023-03-18T10:48:45.943Z,20.33
2023-03-18T10:51:31.427Z,20.31
2023-03-18T10:54:15.731Z,20.31
2023-03-18T10:56:42.974Z,20.31
2023-03-18T10:59:16.342Z,20.27
2023-03-18T11:01:54.151Z,20.23
2023-03-18T11:04:23.771Z,20.23
2023-03-18T11:06:59.487Z,20.22
2023-03-18T11:09:37.168Z,20.22
2023-03-18T11:12:15.090Z,20.22
2023-03-18T11:14:48.125Z,20.23
2023-03-18T11:17:23.799Z,20.22
2023-03-18T11:20:00.857Z,20.21
2023-03-18T11:22:28.081Z,20.22
2023-03-18T11:25:23.498Z,20.21
2023-03-18T11:27:52.423Z,20.23
2023-03-18T11:30:41.078Z,20.21
2023-03-18T11:33:10.773Z,20.21
2023-03-18T11:35:47.301Z,20.22
2023-03-18T11:38:26.052Z,20.22
2023-03-18T11:40:52.907Z,20.23
2023-03-18T11:43:25.504Z,20.21
2023-03-18T11:46:01.895Z,20.21
2023-03-18T11:48:28.441Z,20.20
2023-03-18T11:51:25.158Z,20.20
2023-03-18T11:54:05.028Z,20.21
2023-03-18T11:56:54.273Z,20.21
2023-03-18T11:59:46.285Z,20.21
2023-03-18T12:02:20.688Z,20.23
2023-03-18T12:04:53.750Z,20.23
2023-03-18T12:07:32.563Z,20.21
2023-03-18T12:10:16.295Z,20.23
2023-03-18T12:13:01.930Z,20.23
2023-03-18T12:15:34.721Z,20.25
2023-03-18T12:18:25.909Z,20.23
2023-03-18T12:21:06.851Z,20.23
2023-03-18T12:23:58.000Z,20.22
2023-03-18T12:26:38.204Z,20.23
2023-03-18T12:29:11.357Z,20.21
2023-03-18T12:31:56.088Z,20.20
2023-03-18T12:34:34.241Z,20.20
2023-03-18T12:37:22.118Z,20.19
2023-03-18T12:40:18.430Z,20.18
2023-03-18T12:43:23.107Z,20.17
2023-03-18T12:45:53.768Z,20.18
2023-03-18T12:48:43.231Z,20.16
2023-03-18T12:51:18.417Z,20.16
2023-03-18T12:53:50.182Z,20.17
2023-03-18T12:56:21.477Z,20.18
2023-03-18T12:58:50.401Z,20.19
2023-03-18T13:01:38.911Z,20.21
2023-03-18T13:04:11.935Z,20.27
2023-03-18T13:06:46.037Z,20.31
2023-03-18T13:09:26.797Z,20.36
2023-03-18T13:12:15.265Z,20.40
2023-03-18T13:15:20.631Z,20.41
2023-03-18T13:17:51.373Z,20.44
2023-03-18T13:20:26.707Z,20.44
2023-03-18T13:23:11.098Z,20.44
2023-03-18T13:26:01.904Z,20.46
2023-03-18T13:28:34.031Z,20.47
2023-03-18T13:31:34.449Z,20.46
2023-03-18T13:34:17.064Z,20.49
2023-03-18T13:37:17.611Z,20.48
2023-03-18T13:40:13.179Z,20.48
2023-03-18T13:42:41.279Z,20.50
2023-03-18T13:45:28.731Z,20.46
2023-03-18T13:47:59.298Z,20.49
2023-03-18T13:50:39.699Z,20.49
2023-03-18T13:53:22.362Z,20.49
2023-03-18T13:55:53.405Z,20.50
2023-03-18T13:58:29.822Z,20.49
2023-03-18T14:00:56.869Z,20.48
2023-03-18T14:03:42.625Z,20.47
2023-03-18T14:06:09.190Z,20.47
2023-03-18T14:08:45.476Z,20.48
2023-03-18T14:11:19.719Z,20.49
2023-03-18T14:14:02.979Z,20.48
2023-03-18T14:16:49.740Z,20.50
2023-03-18T14:19:24.186Z,20.50
2023-03-18T14:22:06.076Z,20.51
2023-03-18T14:24:33.156Z,20.52
2023-03-18T14:26:59.581Z,20.52
2023-03-18T14:29:31.068Z,20.52
2023-03-18T14:32:08.353Z,20.52
2023-03-18T14:34:54.998Z,20.50
2023-03-18T14:37:32.609Z,20.52
2023-03-18T14:40:06.230Z,20.52
2023-03-18T14:42:35.569Z,20.51
2023-03-18T14:45:07.019Z,20.52
2023-03-18T14:47:41.869Z,20.51
2023-03-18T14:50:28.595Z,20.50
2023-03-18T14:53:20.775Z,20.48
2023-03-18T14:55:47.960Z,20.49
2023-03-18T14:58:17.397Z,20.48
2023-03-18T15:00:46.260Z,20.48
2023-03-18T15:03:23.533Z,20.46
2023-03-18T15:05:54.664Z,20.48
2023-03-18T15:08:28.071Z,20.46
2023-03-18T15:11:05.838Z,20.46
2023-03-18T15:13:33.367Z,20.46
2023-03-18T15:16:04.163Z,20.44
2023-03-18T15:18:34.418Z,20.44
2023-03-18T15:21:07.184Z,20.43
2023-03-18T15:23:40.151Z,20.43
2023-03-18T15:26:09.773Z,20.42
2023-03-18T15:28:36.609Z,20.43
2023-03-18T15:31:05.745Z,20.38
2023-03-18T15:33:38.167Z,20.33
2023-03-18T15:36:07.286Z,20.29
2023-03-18T15:38:34.219Z,20.27
2023-03-18T15:41:12.085Z,20.22
2023-03-18T15:43:43.945Z,20.21
2023-03-18T15:46:33.065Z,20.18
2023-03-18T15:49:05.483Z,20.18
2023-03-18T15:51:59.346Z,20.16
2023-03-18T15:54:29.907Z,20.17
2023-03-18T15:56:58.790Z,20.16
2023-03-18T15:59:31.150Z,20.16
2023-03-18T16:01:58.879Z,20.19
2023-03-18T16:04:30.160Z,20.21
2023-03-18T16:06:56.823Z,20.26
2023-03-18T16:09:25.059Z,20.25
2023-03-18T16:12:02.304Z,20.27
2023-03-18T16:14:37.522Z,20.29
2023-03-18T16:17:04.042Z,20.30
2023-03-18T16:19:31.019Z,20.30
2023-03-18T16:21:58.780Z,20.31
2023-03-18T16:24:25.960Z,20.33
2023-03-18T16:26:53.795Z,20.34
2023-03-18T16:29:40.646Z,20.31
2023-03-18T16:32:11.592Z,20.35
2023-03-18T16:34:38.734Z,20.33
2023-03-18T16:37:05.294Z,20.26
2023-03-18T16:39:35.104Z,20.24
2023-03-18T16:42:03.176Z,20.24
2023-03-18T16:44:30.541Z,20.30
2023-03-18T16:46:57.616Z,20.42
2023-03-18T16:49:27.043Z,20.54
2023-03-18T16:51:53.902Z,20.65
2023-03-18T16:54:26.442Z,20.77
2023-03-18T16:56:57.444Z,20.87
2023-03-18T16:59:25.052Z,20.98
2023-03-18T17:01:51.878Z,21.07
2023-03-18T17:04:28.562Z,21.15
2023-03-18T17:06:59.773Z,21.25
2023-03-18T17:09:27.556Z,21.31
2023-03-18T17:11:58.262Z,21.35
2023-03-18T17:14:30.062Z,21.39
2023-03-18T17:16:59.338Z,21.42
2023-03-18T17:19:26.510Z,21.42
2023-03-18T17:21:56.421Z,21.43
2023-03-18T17:24:23.294Z,21.41
2023-03-18T17:26:51.567Z,21.39
2023-03-18T17:29:24.115Z,21.36
2023-03-18T17:31:54.554Z,21.35
2023-03-18T17:34:21.448Z,21.33
2023-03-18T17:36:48.642Z,21.33
2023-03-18T17:39:15.569Z,21.30
2023-03-18T17:41:42.804Z,21.29
2023-03-18T17:44:24.529Z,21.25
2023-03-18T17:46:51.165Z,21.25
2023-03-18T17:49:21.645Z,21.20
2023-03-18T17:51:48.857Z,21.19
2023-03-18T17:54:20.677Z,21.17
2023-03-18T17:56:47.895Z,21.16
2023-03-18T17:59:17.029Z,21.15
2023-03-18T18:01:47.204Z,21.13
2023-03-18T18:04:18.677Z,21.12
2023-03-18T18:06:48.102Z,21.11
2023-03-18T18:09:16.518Z,21.09
2023-03-18T18:11:48.907Z,21.08
2023-03-18T18:14:25.035Z,21.06
2023-03-18T18:16:59.501Z,21.06
2023-03-18T18:19:26.075Z,21.04
2023-03-18T18:21:53.241Z,21.03
2023-03-18T18:24:23.780Z,21.02
2023-03-18T18:26:51.136Z,21.01
2023-03-18T18:29:21.626Z,20.99
2023-03-18T18:31:51.535Z,20.98
2023-03-18T18:34:20.113Z,20.97
2023-03-18T18:36:47.855Z,20.95
2023-03-18T18:39:15.263Z,20.94
2023-03-18T18:41:41.922Z,20.92
2023-03-18T18:44:08.550Z,20.92
2023-03-18T18:46:35.953Z,20.90
2023-03-18T18:49:02.697Z,20.88
2023-03-18T18:51:29.350Z,20.87
2023-03-18T18:53:56.028Z,20.85
2023-03-18T18:56:34.451Z,20.83
2023-03-18T18:59:01.998Z,20.83
2023-03-18T19:01:28.515Z,20.82
2023-03-18T19:03:55.571Z,20.80
2023-03-18T19:06:29.419Z,20.78
2023-03-18T19:08:58.138Z,20.79
2023-03-18T19:11:25.764Z,20.78
2023-03-18T19:13:53.626Z,20.76
2023-03-18T19:16:30.680Z,20.76
2023-03-18T19:18:57.905Z,20.73
2023-03-18T19:21:24.436Z,20.72
2023-03-18T19:23:51.208Z,20.72
2023-03-18T19:26:18.563Z,20.70
2023-03-18T19:28:59.297Z,20.68
2023-03-18T19:31:30.637Z,20.68
2023-03-18T19:33:59.475Z,20.66
2023-03-18T19:36:32.232Z,20.65
2023-03-18T19:39:02.061Z,20.65
2023-03-18T19:41:29.503Z,20.63
2023-03-18T19:44:03.823Z,20.61
2023-03-18T19:46:39.393Z,20.58
2023-03-18T19:49:35.292Z,20.53
2023-03-18T19:52:03.045Z,20.54
2023-03-18T19:57:25.011Z,20.46
2023-03-18T19:59:57.291Z,20.44
2023-03-18T20:02:27.259Z,20.42
2023-03-18T20:04:56.510Z,20.40
2023-03-18T20:07:26.094Z,20.39
2023-03-18T20:09:53.654Z,20.38
2023-03-18T20:12:26.448Z,20.36
2023-03-18T20:14:53.292Z,20.36
2023-03-18T20:17:25.822Z,20.35
2023-03-18T20:19:52.413Z,20.34
2023-03-18T20:22:36.537Z,20.31
2023-03-18T20:25:05.333Z,20.32
2023-03-18T20:27:31.938Z,20.30
2023-03-18T20:29:58.672Z,20.30
2023-03-18T20:32:25.278Z,20.29
2023-03-18T20:34:52.057Z,20.29
2023-03-18T20:37:35.968Z,20.27
2023-03-18T20:40:04.332Z,20.24
2023-03-18T20:42:31.779Z,20.27
2023-03-18T20:44:58.330Z,20.27
2023-03-18T20:47:27.781Z,20.24
2023-03-18T20:49:54.802Z,20.27
2023-03-18T20:52:26.619Z,20.33
2023-03-18T20:54:54.310Z,20.40
2023-03-18T20:57:21.041Z,20.50
2023-03-18T20:59:47.761Z,20.61
2023-03-18T21:02:35.342Z,20.72
2023-03-18T21:05:03.142Z,20.84
2023-03-18T21:07:30.203Z,20.95
2023-03-18T21:09:56.800Z,21.06
2023-03-18T21:12:24.248Z,21.15
2023-03-18T21:14:51.153Z,21.26
2023-03-18T21:17:23.758Z,21.35
2023-03-18T21:19:51.682Z,21.44
2023-03-18T21:22:26.062Z,21.53
2023-03-18T21:24:52.854Z,21.62
2023-03-18T21:27:21.678Z,21.69
2023-03-18T21:29:52.352Z,21.75
2023-03-18T21:32:25.696Z,21.83
2023-03-18T21:34:52.653Z,21.88
2023-03-18T21:37:22.184Z,21.93
2023-03-18T21:39:49.496Z,21.98
2023-03-18T21:42:24.291Z,22.02
2023-03-18T21:44:51.529Z,22.04
2023-03-18T21:47:20.877Z,22.04
2023-03-18T21:49:47.949Z,22.03
2023-03-18T21:52:36.102Z,21.99
2023-03-18T21:55:04.440Z,21.98
2023-03-18T21:57:31.241Z,21.94
2023-03-18T21:59:57.775Z,21.89
2023-03-18T22:02:33.288Z,21.84
2023-03-18T22:05:07.661Z,21.81
2023-03-18T22:07:34.188Z,21.82
2023-03-18T22:10:01.134Z,21.81
2023-03-18T22:12:33.212Z,21.80
2023-03-18T22:15:00.719Z,21.82
2023-03-18T22:17:32.604Z,21.79
2023-03-18T22:20:01.394Z,21.81
2023-03-18T22:22:36.954Z,21.82
2023-03-18T22:25:04.345Z,21.85
2023-03-18T22:27:31.845Z,21.86
2023-03-18T22:30:00.055Z,21.89
2023-03-18T22:32:47.096Z,21.84
2023-03-18T22:35:15.404Z,21.82
2023-03-18T22:37:42.639Z,21.78
2023-03-18T22:40:18.968Z,21.71
2023-03-18T22:42:47.649Z,21.67
2023-03-18T22:45:20.022Z,21.58
2023-03-18T22:47:46.583Z,21.53
2023-03-18T22:50:13.239Z,21.47
2023-03-18T22:52:39.781Z,21.40
2023-03-18T22:55:22.891Z,21.34
2023-03-18T22:57:50.205Z,21.30
2023-03-18T23:00:22.954Z,21.21
2023-03-18T23:02:50.627Z,21.16
2023-03-18T23:05:19.860Z,21.12
2023-03-18T23:07:46.616Z,21.07
2023-03-18T23:10:14.037Z,21.02
2023-03-18T23:12:40.699Z,20.98
2023-03-18T23:15:08.231Z,20.93
2023-03-18T23:17:34.805Z,20.89
2023-03-18T23:20:01.418Z,20.84
2023-03-18T23:22:33.863Z,20.81
2023-03-18T23:25:00.633Z,20.77
2023-03-18T23:27:28.282Z,20.72
2023-03-18T23:29:56.199Z,20.67
2023-03-18T23:32:23.864Z,20.63
2023-03-18T23:34:50.480Z,20.60
2023-03-18T23:37:17.587Z,20.56
2023-03-18T23:39:46.124Z,20.52
2023-03-18T23:42:17.684Z,20.48
2023-03-18T23:44:44.752Z,20.43
2023-03-18T23:47:13.024Z,20.41
2023-03-18T23:49:39.838Z,20.39
2023-03-18T23:52:12.552Z,20.35
2023-03-18T23:54:39.699Z,20.31
2023-03-18T23:57:08.734Z,20.29
2023-03-18T23:59:36.682Z,20.26
